createdAt,value
2023-03-22T00:01:16.882Z,98251.19
2023-03-22T00:03:45.189Z,98248.81
2023-03-22T00:06:13.540Z,98252.72
2023-03-22T00:08:41.578Z,98260.88
2023-03-22T00:11:09.901Z,98252.78
2023-03-22T00:13:38.393Z,98259.59
2023-03-22T00:16:08.351Z,98249.31
2023-03-22T00:18:36.425Z,98255.34
2023-03-22T00:21:04.743Z,98251.66
2023-03-22T00:23:32.735Z,98260.88
2023-03-22T00:26:00.925Z,98252.75
2023-03-22T00:28:29.113Z,98253.25
2023-03-22T00:30:58.576Z,98259.03
2023-03-22T00:33:28.289Z,98257.41
2023-03-22T00:35:58.919Z,98256.41
2023-03-22T00:38:44.875Z,98266.63
2023-03-22T00:41:13.965Z,98269.53
2023-03-22T00:43:42.224Z,98274.44
2023-03-22T00:46:10.252Z,98279.47
2023-03-22T00:48:39.959Z,98278.41
2023-03-22T00:51:08.592Z,98283.38
2023-03-22T00:53:36.685Z,98275.25
2023-03-22T00:56:05.291Z,98290.19
2023-03-22T00:58:33.395Z,98294.13
2023-03-22T01:01:01.377Z,98285.13
2023-03-22T01:03:29.438Z,98288.09
2023-03-22T01:05:58.995Z,98291.94
2023-03-22T01:08:33.708Z,98290.94
2023-03-22T01:11:02.197Z,98298.56
2023-03-22T01:13:30.344Z,98302.50
2023-03-22T01:15:58.229Z,98303.50
2023-03-22T01:18:26.241Z,98303.50
2023-03-22T01:20:54.244Z,98311.38
2023-03-22T01:23:23.625Z,98312.97
2023-03-22T01:25:51.540Z,98305.59
2023-03-22T01:28:19.435Z,98310.31
2023-03-22T01:30:47.475Z,98305.03
2023-03-22T01:33:15.483Z,98317.69
2023-03-22T01:35:43.524Z,98317.16
2023-03-22T01:38:11.538Z,98323.66
2023-03-22T01:40:41.438Z,98321.81
2023-03-22T01:43:13.482Z,98327.19
2023-03-22T01:45:42.575Z,98337.84
2023-03-22T01:48:20.073Z,98339.69
2023-03-22T01:50:56.223Z,98323.41
2023-03-22T01:53:25.633Z,98341.28
2023-03-22T01:55:56.664Z,98336.88
2023-03-22T01:58:25.155Z,98337.44
2023-03-22T02:00:54.240Z,98344.03
2023-03-22T02:03:26.963Z,98345.41
2023-03-22T02:05:55.704Z,98338.31
2023-03-22T02:08:23.550Z,98336.81
2023-03-22T02:10:51.577Z,98345.63
2023-03-22T02:13:27.718Z,98349.88
2023-03-22T02:16:02.322Z,98348.84
2023-03-22T02:18:38.742Z,98350.91
2023-03-22T02:21:21.804Z,98352.34
2023-03-22T02:23:58.497Z,98359.66
2023-03-22T02:26:44.162Z,98355.97
2023-03-22T02:29:17.929Z,98364.69
2023-03-22T02:31:59.757Z,98363.91
2023-03-22T02:34:45.496Z,98356.44
2023-03-22T02:37:34.815Z,98364.63
2023-03-22T02:40:05.727Z,98363.59
2023-03-22T02:42:39.098Z,98372.09
2023-03-22T02:45:11.795Z,98372.53
2023-03-22T02:47:42.417Z,98376.25
2023-03-22T02:50:12.812Z,98379.19
2023-03-22T02:52:43.979Z,98385.19
2023-03-22T02:55:15.785Z,98395.78
2023-03-22T02:57:46.517Z,98389.97
2023-03-22T03:00:15.942Z,98395.47
2023-03-22T03:02:47.101Z,98391.56
2023-03-22T03:05:16.537Z,98399.97
2023-03-22T03:07:46.451Z,98403.81
2023-03-22T03:10:16.827Z,98402.81
2023-03-22T03:12:45.087Z,98406.53
2023-03-22T03:15:15.917Z,98413.19
2023-03-22T03:17:54.535Z,98426.69
2023-03-22T03:20:30.317Z,98401.53
2023-03-22T03:23:07.385Z,98421.59
2023-03-22T03:25:43.437Z,98413.63
2023-03-22T03:28:16.367Z,98424.22
2023-03-22T03:30:49.516Z,98422.50
2023-03-22T03:33:21.078Z,98426.59
2023-03-22T03:35:52.292Z,98429.31
2023-03-22T03:38:22.620Z,98425.97
2023-03-22T03:40:55.013Z,98437.66
2023-03-22T03:43:23.788Z,98437.84
2023-03-22T03:45:52.260Z,98442.31
2023-03-22T03:48:21.088Z,98439.50
2023-03-22T03:50:50.397Z,98452.03
2023-03-22T03:53:18.573Z,98451.94
2023-03-22T03:55:46.847Z,98442.81
2023-03-22T03:58:17.226Z,98447.53
2023-03-22T04:00:46.190Z,98444.25
2023-03-22T04:03:14.875Z,98461.88
2023-03-22T04:05:42.863Z,98457.38
2023-03-22T04:08:11.182Z,98463.66
2023-03-22T04:10:39.399Z,98461.22
2023-03-22T04:13:07.513Z,98464.22
2023-03-22T04:15:36.942Z,98470.13
2023-03-22T04:18:05.233Z,98466.00
2023-03-22T04:20:33.112Z,98468.84
2023-03-22T04:23:01.108Z,98468.28
2023-03-22T04:25:30.344Z,98470.00
2023-03-22T04:28:00.725Z,98471.56
2023-03-22T04:30:28.722Z,98475.81
2023-03-22T04:32:58.356Z,98473.81
2023-03-22T04:35:26.365Z,98487.53
2023-03-22T04:37:54.409Z,98486.00
2023-03-22T04:40:22.291Z,98484.22
2023-03-22T04:42:51.481Z,98496.03
2023-03-22T04:45:19.690Z,98493.25
2023-03-22T04:47:48.010Z,98498.06
2023-03-22T04:50:17.392Z,98513.47
2023-03-22T04:52:45.753Z,98509.19
2023-03-22T04:55:13.604Z,98514.81
2023-03-22T04:57:41.657Z,98515.78
2023-03-22T05:00:10.395Z,98522.16
2023-03-22T05:02:41.466Z,98518.28
2023-03-22T05:05:09.961Z,98509.94
2023-03-22T05:07:39.986Z,98517.28
2023-03-22T05:10:08.688Z,98525.31
2023-03-22T05:12:36.667Z,98527.66
2023-03-22T05:15:06.343Z,98525.25
2023-03-22T05:17:34.335Z,98522.13
2023-03-22T05:20:09.457Z,98531.59
2023-03-22T05:22:40.781Z,98534.47
2023-03-22T05:25:11.809Z,98538.88
2023-03-22T05:27:40.200Z,98534.66
2023-03-22T05:30:09.978Z,98539.84
2023-03-22T05:32:43.221Z,98544.84
2023-03-22T05:35:11.752Z,98547.44
2023-03-22T05:37:39.718Z,98555.13
2023-03-22T05:40:10.247Z,98562.16
2023-03-22T05:42:39.826Z,98565.84
2023-03-22T05:45:08.371Z,98562.09
2023-03-22T05:47:37.672Z,98567.28
2023-03-22T05:50:06.065Z,98566.81
2023-03-22T05:52:34.163Z,98569.16
2023-03-22T05:55:02.291Z,98576.59
2023-03-22T05:57:31.230Z,98592.00
2023-03-22T06:00:01.932Z,98588.00
2023-03-22T06:02:30.946Z,98597.97
2023-03-22T06:04:58.964Z,98591.63
2023-03-22T06:07:27.205Z,98600.34
2023-03-22T06:09:55.247Z,98597.25
2023-03-22T06:12:24.937Z,98595.91
2023-03-22T06:14:52.977Z,98598.41
2023-03-22T06:17:22.344Z,98596.25
2023-03-22T06:19:52.859Z,98608.13
2023-03-22T06:22:21.427Z,98611.84
2023-03-22T06:24:49.798Z,98618.34
2023-03-22T06:27:19.180Z,98611.91
2023-03-22T06:29:51.131Z,98616.50
2023-03-22T06:32:19.231Z,98611.69
2023-03-22T06:34:48.688Z,98612.16
2023-03-22T06:37:16.702Z,98615.00
2023-03-22T06:39:44.703Z,98609.69
2023-03-22T06:42:12.892Z,98618.59
2023-03-22T06:44:43.984Z,98618.97
2023-03-22T06:47:12.081Z,98614.69
2023-03-22T06:49:40.125Z,98626.50
2023-03-22T06:52:09.625Z,98622.63
2023-03-22T06:54:37.710Z,98624.44
2023-03-22T06:57:05.845Z,98624.06
2023-03-22T06:59:33.787Z,98629.72
2023-03-22T07:02:02.014Z,98623.41
2023-03-22T07:04:30.081Z,98619.47
2023-03-22T07:06:58.251Z,98622.94
2023-03-22T07:09:27.758Z,98625.31
2023-03-22T07:11:55.846Z,98627.94
2023-03-22T07:14:24.069Z,98617.38
2023-03-22T07:16:52.042Z,98617.13
2023-03-22T07:19:20.059Z,98618.97
2023-03-22T07:21:48.119Z,98622.69
2023-03-22T07:24:16.140Z,98626.38
2023-03-22T07:26:45.686Z,98628.75
2023-03-22T07:29:13.606Z,98640.13
2023-03-22T07:31:42.954Z,98646.19
2023-03-22T07:34:11.173Z,98649.66
2023-03-22T07:36:39.137Z,98658.59
2023-03-22T07:39:07.251Z,98654.38
2023-03-22T07:41:35.372Z,98663.66
2023-03-22T07:44:16.955Z,98661.53
2023-03-22T07:46:45.490Z,98658.38
2023-03-22T07:49:13.905Z,98664.72
2023-03-22T07:51:42.066Z,98666.81
2023-03-22T07:54:10.736Z,98662.31
2023-03-22T07:56:39.122Z,98662.84
2023-03-22T07:59:08.878Z,98667.09
2023-03-22T08:01:37.354Z,98659.66
2023-03-22T08:04:05.493Z,98664.19
2023-03-22T08:06:34.005Z,98667.09
2023-03-22T08:09:02.156Z,98675.28
2023-03-22T08:11:30.332Z,98672.66
2023-03-22T08:13:58.361Z,98667.59
2023-03-22T08:16:27.788Z,98671.84
2023-03-22T08:18:55.969Z,98671.31
2023-03-22T08:21:23.974Z,98664.97
2023-03-22T08:23:51.915Z,98671.06
2023-03-22T08:26:19.892Z,98675.53
2023-03-22T08:28:47.768Z,98669.69
2023-03-22T08:31:16.669Z,98673.09
2023-03-22T08:33:46.473Z,98676.03
2023-03-22T08:36:16.480Z,98675.22
2023-03-22T08:38:45.565Z,98676.53
2023-03-22T08:41:13.613Z,98673.22
2023-03-22T08:43:41.607Z,98677.88
2023-03-22T08:46:09.807Z,98672.91
2023-03-22T08:48:38.134Z,98679.09
2023-03-22T08:51:07.935Z,98673.16
2023-03-22T08:53:35.936Z,98678.31
2023-03-22T08:56:04.317Z,98671.84
2023-03-22T08:58:32.383Z,98684.69
2023-03-22T09:01:00.603Z,98687.22
2023-03-22T09:03:29.284Z,98684.91
2023-03-22T09:05:57.360Z,98686.50
2023-03-22T09:08:27.404Z,98675.88
2023-03-22T09:10:55.482Z,98688.16
2023-03-22T09:13:23.481Z,98680.78
2023-03-22T09:15:52.546Z,98666.81
2023-03-22T09:18:20.603Z,98689.06
2023-03-22T09:20:48.874Z,98676.94
2023-03-22T09:23:16.841Z,98682.72
2023-03-22T09:25:47.017Z,98686.25
2023-03-22T09:28:15.624Z,98680.22
2023-03-22T09:30:45.012Z,98691.91
2023-03-22T09:33:13.311Z,98691.38
2023-03-22T09:35:43.044Z,98691.13
2023-03-22T09:38:12.428Z,98686.66
2023-03-22T09:40:47.880Z,98693.03
2023-03-22T09:43:20.580Z,98694.88
2023-03-22T09:45:51.769Z,98697.75
2023-03-22T09:48:21.844Z,98696.72
2023-03-22T09:50:50.907Z,98696.94
2023-03-22T09:53:19.379Z,98696.66
2023-03-22T09:55:50.194Z,98700.84
2023-03-22T09:58:25.475Z,98702.44
2023-03-22T10:00:57.865Z,98703.16
2023-03-22T10:03:36.444Z,98708.72
2023-03-22T10:06:06.458Z,98695.50
2023-03-22T10:08:38.032Z,98690.91
2023-03-22T10:11:11.338Z,98700.16
2023-03-22T10:13:43.762Z,98700.53
2023-03-22T10:16:13.193Z,98699.38
2023-03-22T10:18:45.224Z,98695.59
2023-03-22T10:21:14.099Z,98697.44
2023-03-22T10:23:44.336Z,98696.53
2023-03-22T10:26:18.912Z,98688.50
2023-03-22T10:28:51.121Z,98689.13
2023-03-22T10:31:21.490Z,98694.16
2023-03-22T10:33:54.326Z,98695.53
2023-03-22T10:36:24.151Z,98701.44
2023-03-22T10:38:55.490Z,98693.34
2023-03-22T10:41:25.706Z,98703.69
2023-03-22T10:43:57.647Z,98699.28
2023-03-22T10:46:27.111Z,98701.47
2023-03-22T10:48:58.481Z,98699.53
2023-03-22T10:51:29.414Z,98703.03
2023-03-22T10:53:58.445Z,98707.50
2023-03-22T10:56:27.031Z,98712.13
2023-03-22T10:58:56.993Z,98695.88
2023-03-22T11:01:29.728Z,98700.09
2023-03-22T11:04:01.704Z,98703.91
2023-03-22T11:06:33.019Z,98695.00
2023-03-22T11:09:02.680Z,98695.63
2023-03-22T11:11:32.125Z,98703.53
2023-03-22T11:14:07.574Z,98705.25
2023-03-22T11:16:43.792Z,98702.69
2023-03-22T11:19:16.315Z,98698.06
2023-03-22T11:21:44.605Z,98691.66
2023-03-22T11:24:14.467Z,98706.50
2023-03-22T11:26:45.114Z,98706.47
2023-03-22T11:29:15.779Z,98703.53
2023-03-22T11:31:54.338Z,98699.41
2023-03-22T11:34:24.290Z,98697.03
2023-03-22T11:36:56.938Z,98700.53
2023-03-22T11:39:26.128Z,98694.25
2023-03-22T11:41:55.462Z,98694.28
2023-03-22T11:44:27.232Z,98685.84
2023-03-22T11:46:58.165Z,98691.91
2023-03-22T11:49:28.320Z,98696.91
2023-03-22T11:51:57.120Z,98692.31
2023-03-22T11:54:28.827Z,98705.44
2023-03-22T11:57:00.137Z,98672.53
2023-03-22T11:59:30.877Z,98686.03
2023-03-22T12:02:01.865Z,98689.16
2023-03-22T12:04:31.508Z,98689.78
2023-03-22T12:07:01.167Z,98688.16
2023-03-22T12:09:33.993Z,98694.25
2023-03-22T12:12:03.097Z,98685.38
2023-03-22T12:14:34.472Z,98694.00
2023-03-22T12:17:06.240Z,98691.84
2023-03-22T12:19:42.041Z,98688.88
2023-03-22T12:22:14.315Z,98683.50
2023-03-22T12:24:42.987Z,98693.78
2023-03-22T12:27:16.885Z,98670.19
2023-03-22T12:29:48.848Z,98691.56
2023-03-22T12:32:19.262Z,98684.19
2023-03-22T12:34:50.860Z,98681.63
2023-03-22T12:37:23.090Z,98687.41
2023-03-22T12:39:53.319Z,98681.78
2023-03-22T12:42:23.183Z,98672.56
2023-03-22T12:45:04.153Z,98679.69
2023-03-22T12:47:36.231Z,98678.13
2023-03-22T12:50:05.487Z,98672.25
2023-03-22T12:52:45.264Z,98668.69
2023-03-22T12:55:22.052Z,98680.28
2023-03-22T12:57:52.760Z,98680.13
2023-03-22T13:00:23.183Z,98669.78
2023-03-22T13:02:56.119Z,98677.56
2023-03-22T13:05:27.916Z,98668.53
2023-03-22T13:07:59.060Z,98663.28
2023-03-22T13:10:46.167Z,98657.31
2023-03-22T13:13:17.266Z,98663.47
2023-03-22T13:16:00.969Z,98656.16
2023-03-22T13:18:38.869Z,98660.59
2023-03-22T13:21:11.580Z,98655.59
2023-03-22T13:23:53.919Z,98657.72
2023-03-22T13:26:23.508Z,98659.97
2023-03-22T13:28:58.806Z,98662.31
2023-03-22T13:31:38.772Z,98656.97
2023-03-22T13:34:14.344Z,98659.09
2023-03-22T13:36:49.721Z,98651.59
2023-03-22T13:39:18.341Z,98661.50
2023-03-22T13:41:49.040Z,98645.97
2023-03-22T13:44:27.708Z,98644.94
2023-03-22T13:46:59.000Z,98649.78
2023-03-22T13:49:44.865Z,98647.91
2023-03-22T13:52:24.786Z,98647.41
2023-03-22T13:54:54.828Z,98647.16
2023-03-22T13:57:37.912Z,98644.28
2023-03-22T14:00:14.370Z,98652.97
2023-03-22T14:02:46.242Z,98640.59
2023-03-22T14:05:16.515Z,98632.31
2023-03-22T14:07:46.305Z,98631.47
2023-03-22T14:10:15.621Z,98629.84
2023-03-22T14:12:49.929Z,98635.16
2023-03-22T14:15:19.420Z,98621.38
2023-03-22T14:17:51.093Z,98631.97
2023-03-22T14:20:20.863Z,98620.31
